sensor_id;sensor_type;location;lat;lon;timestamp;P1;durP1;ratioP1;P2;durP2;ratioP2
52618;SDS011;38513;53.234;6.568;2022-08-01T00:01:14;9.18;;;5.50;;
52618;SDS011;38513;53.234;6.568;2022-08-01T00:03:40;10.13;;;5.60;;
52618;SDS011;38513;53.234;6.568;2022-08-01T00:06:06;10.73;;;6.85;;
52618;SDS011;38513;53.234;6.568;2022-08-01T00:08:32;18.75;;;11.95;;
52618;SDS011;38513;53.234;6.568;2022-08-01T00:10:59;11.75;;;6.53;;
52618;SDS011;38513;53.234;6.568;2022-08-01T00:13:25;11.45;;;6.20;;
52618;SDS011;38513;53.234;6.568;2022-08-01T00:15:51;11.35;;;6.00;;
52618;SDS011;38513;53.234;6.568;2022-08-01T00:18:17;10.20;;;5.93;;
52618;SDS011;38513;53.234;6.568;2022-08-01T00:20:43;10.50;;;6.18;;
52618;SDS011;38513;53.234;6.568;2022-08-01T00:23:09;10.02;;;6.10;;
52618;SDS011;38513;53.234;6.568;2022-08-01T00:25:45;10.27;;;5.87;;
52618;SDS011;38513;53.234;6.568;2022-08-01T00:28:11;13.00;;;6.43;;
52618;SDS011;38513;53.234;6.568;2022-08-01T00:30:38;11.52;;;6.72;;
52618;SDS011;38513;53.234;6.568;2022-08-01T00:33:04;10.25;;;6.50;;
52618;SDS011;38513;53.234;6.568;2022-08-01T00:35:30;14.20;;;7.32;;
52618;SDS011;38513;53.234;6.568;2022-08-01T00:37:57;12.93;;;7.28;;
52618;SDS011;38513;53.234;6.568;2022-08-01T00:40:23;13.55;;;7.20;;
52618;SDS011;38513;53.234;6.568;2022-08-01T00:42:49;13.40;;;7.60;;
52618;SDS011;38513;53.234;6.568;2022-08-01T00:45:15;12.07;;;7.20;;
52618;SDS011;38513;53.234;6.568;2022-08-01T00:47:41;12.98;;;7.90;;
52618;SDS011;38513;53.234;6.568;2022-08-01T00:50:08;12.27;;;7.15;;
52618;SDS011;38513;53.234;6.568;2022-08-01T00:52:34;12.00;;;7.50;;
52618;SDS011;38513;53.234;6.568;2022-08-01T00:55:00;10.18;;;6.45;;
52618;SDS011;38513;53.234;6.568;2022-08-01T00:57:27;11.43;;;6.53;;
52618;SDS011;38513;53.234;6.568;2022-08-01T00:59:53;9.85;;;6.00;;
52618;SDS011;38513;53.234;6.568;2022-08-01T01:02:19;10.18;;;5.57;;
52618;SDS011;38513;53.234;6.568;2022-08-01T01:04:45;8.75;;;5.35;;
52618;SDS011;38513;53.234;6.568;2022-08-01T01:09:51;11.38;;;5.30;;
52618;SDS011;38513;53.234;6.568;2022-08-01T01:12:35;10.55;;;5.30;;
52618;SDS011;38513;53.234;6.568;2022-08-01T01:15:04;10.40;;;4.95;;
52618;SDS011;38513;53.234;6.568;2022-08-01T01:17:37;12.15;;;4.97;;
52618;SDS011;38513;53.234;6.568;2022-08-01T01:20:05;10.38;;;4.03;;
52618;SDS011;38513;53.234;6.568;2022-08-01T01:25:17;10.02;;;4.00;;
52618;SDS011;38513;53.234;6.568;2022-08-01T01:27:57;10.00;;;3.67;;
52618;SDS011;38513;53.234;6.568;2022-08-01T01:30:26;11.27;;;3.78;;
52618;SDS011;38513;53.234;6.568;2022-08-01T01:32:54;13.88;;;4.40;;
52618;SDS011;38513;53.234;6.568;2022-08-01T01:35:26;9.82;;;4.10;;
52618;SDS011;38513;53.234;6.568;2022-08-01T01:37:56;10.05;;;4.22;;
52618;SDS011;38513;53.234;6.568;2022-08-01T01:40:23;12.80;;;4.30;;
52618;SDS011;38513;53.234;6.568;2022-08-01T01:42:50;14.63;;;4.60;;
52618;SDS011;38513;53.234;6.568;2022-08-01T01:45:16;12.93;;;4.50;;
52618;SDS011;38513;53.234;6.568;2022-08-01T01:47:43;14.27;;;4.97;;
52618;SDS011;38513;53.234;6.568;2022-08-01T01:50:10;17.10;;;4.20;;
52618;SDS011;38513;53.234;6.568;2022-08-01T01:52:38;12.25;;;3.90;;
52618;SDS011;38513;53.234;6.568;2022-08-01T01:55:08;13.52;;;3.80;;
52618;SDS011;38513;53.234;6.568;2022-08-01T01:57:38;16.50;;;4.07;;
52618;SDS011;38513;53.234;6.568;2022-08-01T02:00:06;12.95;;;4.10;;
52618;SDS011;38513;53.234;6.568;2022-08-01T02:02:36;12.60;;;4.17;;
52618;SDS011;38513;53.234;6.568;2022-08-01T02:05:04;13.80;;;4.13;;
52618;SDS011;38513;53.234;6.568;2022-08-01T02:07:34;11.80;;;4.22;;
52618;SDS011;38513;53.234;6.568;2022-08-01T02:10:03;11.82;;;3.85;;
52618;SDS011;38513;53.234;6.568;2022-08-01T02:12:29;13.60;;;4.10;;
52618;SDS011;38513;53.234;6.568;2022-08-01T02:14:56;12.77;;;4.00;;
52618;SDS011;38513;53.234;6.568;2022-08-01T02:17:23;10.98;;;3.60;;
52618;SDS011;38513;53.234;6.568;2022-08-01T02:19:51;11.02;;;2.97;;
52618;SDS011;38513;53.234;6.568;2022-08-01T02:22:19;11.48;;;2.95;;
52618;SDS011;38513;53.234;6.568;2022-08-01T02:24:55;10.13;;;2.70;;
52618;SDS011;38513;53.234;6.568;2022-08-01T02:27:28;15.38;;;3.97;;
52618;SDS011;38513;53.234;6.568;2022-08-01T02:30:00;12.27;;;4.00;;
52618;SDS011;38513;53.234;6.568;2022-08-01T02:32:30;14.50;;;4.38;;
52618;SDS011;38513;53.234;6.568;2022-08-01T02:35:00;16.67;;;4.28;;
52618;SDS011;38513;53.234;6.568;2022-08-01T02:37:28;16.00;;;4.60;;
52618;SDS011;38513;53.234;6.568;2022-08-01T02:39:57;16.60;;;5.30;;
52618;SDS011;38513;53.234;6.568;2022-08-01T02:42:24;17.85;;;5.53;;
52618;SDS011;38513;53.234;6.568;2022-08-01T02:44:52;17.08;;;5.55;;
52618;SDS011;38513;53.234;6.568;2022-08-01T02:47:19;16.13;;;4.78;;
52618;SDS011;38513;53.234;6.568;2022-08-01T02:49:47;18.88;;;5.30;;
52618;SDS011;38513;53.234;6.568;2022-08-01T02:52:16;15.52;;;5.07;;
52618;SDS011;38513;53.234;6.568;2022-08-01T02:54:46;14.80;;;5.00;;
52618;SDS011;38513;53.234;6.568;2022-08-01T02:57:13;15.27;;;4.73;;
52618;SDS011;38513;53.234;6.568;2022-08-01T02:59:40;12.57;;;4.47;;
52618;SDS011;38513;53.234;6.568;2022-08-01T03:02:07;12.47;;;4.40;;
52618;SDS011;38513;53.234;6.568;2022-08-01T03:04:34;16.63;;;5.15;;
52618;SDS011;38513;53.234;6.568;2022-08-01T03:07:02;16.55;;;4.63;;
52618;SDS011;38513;53.234;6.568;2022-08-01T03:09:29;13.52;;;4.95;;
52618;SDS011;38513;53.234;6.568;2022-08-01T03:11:58;14.13;;;4.65;;
52618;SDS011;38513;53.234;6.568;2022-08-01T03:14:24;12.70;;;4.80;;
52618;SDS011;38513;53.234;6.568;2022-08-01T03:16:51;15.10;;;6.00;;
52618;SDS011;38513;53.234;6.568;2022-08-01T03:19:18;13.93;;;4.97;;
52618;SDS011;38513;53.234;6.568;2022-08-01T03:21:44;16.88;;;5.82;;
52618;SDS011;38513;53.234;6.568;2022-08-01T03:24:12;14.77;;;5.10;;
52618;SDS011;38513;53.234;6.568;2022-08-01T03:26:38;13.05;;;4.40;;
52618;SDS011;38513;53.234;6.568;2022-08-01T03:29:06;11.98;;;4.90;;
52618;SDS011;38513;53.234;6.568;2022-08-01T03:31:34;15.70;;;5.00;;
52618;SDS011;38513;53.234;6.568;2022-08-01T03:34:01;11.85;;;4.50;;
52618;SDS011;38513;53.234;6.568;2022-08-01T03:36:27;15.63;;;4.82;;
52618;SDS011;38513;53.234;6.568;2022-08-01T03:38:55;14.40;;;4.80;;
52618;SDS011;38513;53.234;6.568;2022-08-01T03:41:24;13.70;;;4.33;;
52618;SDS011;38513;53.234;6.568;2022-08-01T03:43:58;14.95;;;4.90;;
52618;SDS011;38513;53.234;6.568;2022-08-01T03:46:32;17.45;;;4.60;;
52618;SDS011;38513;53.234;6.568;2022-08-01T03:49:03;14.73;;;4.80;;
52618;SDS011;38513;53.234;6.568;2022-08-01T03:51:31;12.38;;;4.55;;
52618;SDS011;38513;53.234;6.568;2022-08-01T03:54:02;14.60;;;4.85;;
52618;SDS011;38513;53.234;6.568;2022-08-01T03:56:30;11.57;;;4.18;;
52618;SDS011;38513;53.234;6.568;2022-08-01T03:58:59;16.25;;;4.85;;
52618;SDS011;38513;53.234;6.568;2022-08-01T04:01:26;13.35;;;4.40;;
52618;SDS011;38513;53.234;6.568;2022-08-01T04:04:00;12.95;;;4.25;;
52618;SDS011;38513;53.234;6.568;2022-08-01T04:06:30;14.15;;;4.25;;
52618;SDS011;38513;53.234;6.568;2022-08-01T04:08:57;13.55;;;4.30;;
52618;SDS011;38513;53.234;6.568;2022-08-01T04:11:23;13.52;;;3.90;;
52618;SDS011;38513;53.234;6.568;2022-08-01T04:13:53;14.73;;;4.00;;
52618;SDS011;38513;53.234;6.568;2022-08-01T04:16:19;15.13;;;4.20;;
52618;SDS011;38513;53.234;6.568;2022-08-01T04:18:46;14.10;;;4.07;;
52618;SDS011;38513;53.234;6.568;2022-08-01T04:21:13;11.95;;;4.18;;
52618;SDS011;38513;53.234;6.568;2022-08-01T04:23:40;14.60;;;4.40;;
52618;SDS011;38513;53.234;6.568;2022-08-01T04:26:07;18.05;;;4.90;;
52618;SDS011;38513;53.234;6.568;2022-08-01T04:28:34;19.60;;;4.75;;
52618;SDS011;38513;53.234;6.568;2022-08-01T04:31:01;13.20;;;4.05;;
52618;SDS011;38513;53.234;6.568;2022-08-01T04:33:29;15.30;;;3.88;;
52618;SDS011;38513;53.234;6.568;2022-08-01T04:35:58;13.80;;;3.92;;
52618;SDS011;38513;53.234;6.568;2022-08-01T04:38:25;17.25;;;4.15;;
52618;SDS011;38513;53.234;6.568;2022-08-01T04:40:52;14.82;;;4.15;;
52618;SDS011;38513;53.234;6.568;2022-08-01T04:43:18;15.45;;;3.90;;
52618;SDS011;38513;53.234;6.568;2022-08-01T04:45:44;15.23;;;4.30;;
52618;SDS011;38513;53.234;6.568;2022-08-01T04:48:11;17.75;;;4.18;;
52618;SDS011;38513;53.234;6.568;2022-08-01T04:50:40;15.05;;;4.45;;
52618;SDS011;38513;53.234;6.568;2022-08-01T04:53:12;18.92;;;4.90;;
52618;SDS011;38513;53.234;6.568;2022-08-01T04:55:38;17.88;;;4.47;;
52618;SDS011;38513;53.234;6.568;2022-08-01T04:58:04;21.00;;;5.28;;
52618;SDS011;38513;53.234;6.568;2022-08-01T05:00:30;21.08;;;4.93;;
52618;SDS011;38513;53.234;6.568;2022-08-01T05:02:58;17.95;;;4.38;;
52618;SDS011;38513;53.234;6.568;2022-08-01T05:05:25;18.88;;;4.85;;
52618;SDS011;38513;53.234;6.568;2022-08-01T05:07:51;17.35;;;4.68;;
52618;SDS011;38513;53.234;6.568;2022-08-01T05:10:17;13.80;;;4.07;;
52618;SDS011;38513;53.234;6.568;2022-08-01T05:12:43;19.90;;;5.03;;
52618;SDS011;38513;53.234;6.568;2022-08-01T05:15:10;18.17;;;4.57;;
52618;SDS011;38513;53.234;6.568;2022-08-01T05:17:38;16.20;;;4.78;;
52618;SDS011;38513;53.234;6.568;2022-08-01T05:20:08;20.58;;;5.18;;
52618;SDS011;38513;53.234;6.568;2022-08-01T05:22:34;17.23;;;4.38;;
52618;SDS011;38513;53.234;6.568;2022-08-01T05:25:00;23.92;;;5.35;;
52618;SDS011;38513;53.234;6.568;2022-08-01T05:27:26;18.50;;;4.20;;
52618;SDS011;38513;53.234;6.568;2022-08-01T05:29:52;19.58;;;4.63;;
52618;SDS011;38513;53.234;6.568;2022-08-01T05:32:18;22.05;;;5.07;;
52618;SDS011;38513;53.234;6.568;2022-08-01T05:34:44;20.33;;;4.68;;
52618;SDS011;38513;53.234;6.568;2022-08-01T05:37:11;18.92;;;4.72;;
52618;SDS011;38513;53.234;6.568;2022-08-01T05:39:37;22.45;;;5.72;;
52618;SDS011;38513;53.234;6.568;2022-08-01T05:42:06;20.65;;;4.88;;
52618;SDS011;38513;53.234;6.568;2022-08-01T05:44:32;25.60;;;5.03;;
52618;SDS011;38513;53.234;6.568;2022-08-01T05:46:59;24.70;;;4.93;;
52618;SDS011;38513;53.234;6.568;2022-08-01T05:49:27;21.03;;;4.60;;
52618;SDS011;38513;53.234;6.568;2022-08-01T05:51:54;22.05;;;4.55;;
52618;SDS011;38513;53.234;6.568;2022-08-01T05:54:20;22.02;;;4.63;;
52618;SDS011;38513;53.234;6.568;2022-08-01T05:56:46;21.70;;;4.65;;
52618;SDS011;38513;53.234;6.568;2022-08-01T05:59:12;20.70;;;4.93;;
52618;SDS011;38513;53.234;6.568;2022-08-01T06:01:38;22.40;;;5.35;;
52618;SDS011;38513;53.234;6.568;2022-08-01T06:04:04;23.40;;;4.65;;
52618;SDS011;38513;53.234;6.568;2022-08-01T06:06:30;18.02;;;4.35;;
52618;SDS011;38513;53.234;6.568;2022-08-01T06:08:56;19.88;;;4.55;;
52618;SDS011;38513;53.234;6.568;2022-08-01T06:11:23;17.98;;;4.20;;
52618;SDS011;38513;53.234;6.568;2022-08-01T06:13:51;20.20;;;4.45;;
52618;SDS011;38513;53.234;6.568;2022-08-01T06:16:18;17.42;;;4.18;;
52618;SDS011;38513;53.234;6.568;2022-08-01T06:18:45;18.83;;;4.50;;
52618;SDS011;38513;53.234;6.568;2022-08-01T06:21:11;16.40;;;3.97;;
52618;SDS011;38513;53.234;6.568;2022-08-01T06:23:40;18.17;;;4.35;;
52618;SDS011;38513;53.234;6.568;2022-08-01T06:26:07;20.40;;;4.45;;
52618;SDS011;38513;53.234;6.568;2022-08-01T06:28:36;24.70;;;4.57;;
52618;SDS011;38513;53.234;6.568;2022-08-01T06:31:03;19.85;;;4.28;;
52618;SDS011;38513;53.234;6.568;2022-08-01T06:33:29;19.20;;;3.90;;
52618;SDS011;38513;53.234;6.568;2022-08-01T06:35:56;18.13;;;4.13;;
52618;SDS011;38513;53.234;6.568;2022-08-01T06:38:25;18.52;;;4.10;;
52618;SDS011;38513;53.234;6.568;2022-08-01T06:40:51;17.02;;;4.35;;
52618;SDS011;38513;53.234;6.568;2022-08-01T06:43:17;16.77;;;4.10;;
52618;SDS011;38513;53.234;6.568;2022-08-01T06:45:44;21.20;;;4.57;;
52618;SDS011;38513;53.234;6.568;2022-08-01T06:48:10;20.07;;;3.80;;
52618;SDS011;38513;53.234;6.568;2022-08-01T06:50:36;17.17;;;3.40;;
52618;SDS011;38513;53.234;6.568;2022-08-01T06:53:02;15.75;;;3.42;;
52618;SDS011;38513;53.234;6.568;2022-08-01T06:55:29;16.52;;;3.58;;
52618;SDS011;38513;53.234;6.568;2022-08-01T06:57:55;16.42;;;3.58;;
52618;SDS011;38513;53.234;6.568;2022-08-01T07:00:22;17.30;;;3.50;;
52618;SDS011;38513;53.234;6.568;2022-08-01T07:02:49;16.85;;;3.95;;
52618;SDS011;38513;53.234;6.568;2022-08-01T07:05:15;16.02;;;3.40;;
52618;SDS011;38513;53.234;6.568;2022-08-01T07:07:44;16.25;;;3.60;;
52618;SDS011;38513;53.234;6.568;2022-08-01T07:10:10;14.52;;;3.33;;
52618;SDS011;38513;53.234;6.568;2022-08-01T07:12:36;14.00;;;3.50;;
52618;SDS011;38513;53.234;6.568;2022-08-01T07:15:04;16.40;;;3.47;;
52618;SDS011;38513;53.234;6.568;2022-08-01T07:17:30;15.70;;;3.20;;
52618;SDS011;38513;53.234;6.568;2022-08-01T07:19:59;12.27;;;2.75;;
52618;SDS011;38513;53.234;6.568;2022-08-01T07:22:27;16.05;;;3.40;;
52618;SDS011;38513;53.234;6.568;2022-08-01T07:24:53;18.48;;;3.13;;
52618;SDS011;38513;53.234;6.568;2022-08-01T07:27:19;14.77;;;3.50;;
52618;SDS011;38513;53.234;6.568;2022-08-01T07:29:45;16.27;;;3.33;;
52618;SDS011;38513;53.234;6.568;2022-08-01T07:32:11;17.17;;;3.53;;
52618;SDS011;38513;53.234;6.568;2022-08-01T07:34:37;12.98;;;3.28;;
52618;SDS011;38513;53.234;6.568;2022-08-01T07:37:03;14.30;;;3.13;;
52618;SDS011;38513;53.234;6.568;2022-08-01T07:39:38;16.00;;;3.25;;
52618;SDS011;38513;53.234;6.568;2022-08-01T07:42:05;16.95;;;3.28;;
52618;SDS011;38513;53.234;6.568;2022-08-01T07:44:31;16.55;;;3.00;;
52618;SDS011;38513;53.234;6.568;2022-08-01T07:46:58;13.55;;;2.90;;
52618;SDS011;38513;53.234;6.568;2022-08-01T07:49:24;13.07;;;2.58;;
52618;SDS011;38513;53.234;6.568;2022-08-01T07:51:50;16.17;;;2.77;;
52618;SDS011;38513;53.234;6.568;2022-08-01T07:54:16;14.38;;;2.60;;
52618;SDS011;38513;53.234;6.568;2022-08-01T07:56:42;12.45;;;2.65;;
52618;SDS011;38513;53.234;6.568;2022-08-01T07:59:09;15.18;;;2.92;;
52618;SDS011;38513;53.234;6.568;2022-08-01T08:01:35;9.73;;;2.53;;
52618;SDS011;38513;53.234;6.568;2022-08-01T08:04:01;12.90;;;2.55;;
52618;SDS011;38513;53.234;6.568;2022-08-01T08:06:27;11.95;;;2.60;;
52618;SDS011;38513;53.234;6.568;2022-08-01T08:08:53;14.10;;;2.50;;
52618;SDS011;38513;53.234;6.568;2022-08-01T08:11:19;10.88;;;2.38;;
52618;SDS011;38513;53.234;6.568;2022-08-01T08:13:45;14.80;;;2.72;;
52618;SDS011;38513;53.234;6.568;2022-08-01T08:16:11;16.80;;;3.13;;
52618;SDS011;38513;53.234;6.568;2022-08-01T08:18:38;14.35;;;2.97;;
52618;SDS011;38513;53.234;6.568;2022-08-01T08:21:04;13.40;;;2.70;;
52618;SDS011;38513;53.234;6.568;2022-08-01T08:26:25;9.57;;;2.47;;
52618;SDS011;38513;53.234;6.568;2022-08-01T08:28:52;12.23;;;2.55;;
52618;SDS011;38513;53.234;6.568;2022-08-01T08:31:18;10.38;;;2.50;;
52618;SDS011;38513;53.234;6.568;2022-08-01T08:33:44;11.25;;;1.92;;
52618;SDS011;38513;53.234;6.568;2022-08-01T08:36:10;11.03;;;2.40;;
52618;SDS011;38513;53.234;6.568;2022-08-01T08:38:37;11.95;;;2.47;;
52618;SDS011;38513;53.234;6.568;2022-08-01T08:41:03;10.45;;;2.03;;
52618;SDS011;38513;53.234;6.568;2022-08-01T08:43:29;14.00;;;2.67;;
52618;SDS011;38513;53.234;6.568;2022-08-01T08:46:01;11.50;;;2.43;;
52618;SDS011;38513;53.234;6.568;2022-08-01T08:48:28;11.48;;;2.28;;
52618;SDS011;38513;53.234;6.568;2022-08-01T08:50:55;13.10;;;1.98;;
52618;SDS011;38513;53.234;6.568;2022-08-01T08:53:22;9.70;;;2.28;;
52618;SDS011;38513;53.234;6.568;2022-08-01T08:55:48;10.65;;;2.40;;
52618;SDS011;38513;53.234;6.568;2022-08-01T08:58:15;12.13;;;2.33;;
52618;SDS011;38513;53.234;6.568;2022-08-01T09:00:43;12.73;;;2.50;;
52618;SDS011;38513;53.234;6.568;2022-08-01T09:03:09;12.10;;;2.20;;
52618;SDS011;38513;53.234;6.568;2022-08-01T09:05:37;9.10;;;2.17;;
52618;SDS011;38513;53.234;6.568;2022-08-01T09:08:07;10.55;;;2.35;;
52618;SDS011;38513;53.234;6.568;2022-08-01T09:10:34;11.60;;;2.28;;
52618;SDS011;38513;53.234;6.568;2022-08-01T09:13:13;11.43;;;2.70;;
52618;SDS011;38513;53.234;6.568;2022-08-01T09:15:48;11.95;;;2.30;;
52618;SDS011;38513;53.234;6.568;2022-08-01T09:21:06;8.63;;;2.00;;
52618;SDS011;38513;53.234;6.568;2022-08-01T09:23:33;12.07;;;2.60;;
52618;SDS011;38513;53.234;6.568;2022-08-01T09:26:00;8.80;;;2.13;;
52618;SDS011;38513;53.234;6.568;2022-08-01T09:28:33;9.60;;;2.13;;
52618;SDS011;38513;53.234;6.568;2022-08-01T09:31:04;10.40;;;2.05;;
52618;SDS011;38513;53.234;6.568;2022-08-01T09:33:47;10.45;;;2.67;;
52618;SDS011;38513;53.234;6.568;2022-08-01T09:36:17;13.20;;;2.30;;
52618;SDS011;38513;53.234;6.568;2022-08-01T09:38:43;9.55;;;1.88;;
52618;SDS011;38513;53.234;6.568;2022-08-01T09:41:09;13.38;;;2.67;;
52618;SDS011;38513;53.234;6.568;2022-08-01T09:43:36;9.23;;;2.00;;
52618;SDS011;38513;53.234;6.568;2022-08-01T09:46:10;10.80;;;2.15;;
52618;SDS011;38513;53.234;6.568;2022-08-01T09:48:37;13.05;;;2.47;;
52618;SDS011;38513;53.234;6.568;2022-08-01T09:51:04;11.13;;;2.22;;
52618;SDS011;38513;53.234;6.568;2022-08-01T09:53:47;10.80;;;2.00;;
52618;SDS011;38513;53.234;6.568;2022-08-01T09:56:13;10.95;;;2.20;;
52618;SDS011;38513;53.234;6.568;2022-08-01T09:58:51;9.60;;;1.93;;
52618;SDS011;38513;53.234;6.568;2022-08-01T10:01:18;10.20;;;1.98;;
52618;SDS011;38513;53.234;6.568;2022-08-01T10:03:46;10.93;;;2.07;;
52618;SDS011;38513;53.234;6.568;2022-08-01T10:06:24;9.32;;;2.05;;
52618;SDS011;38513;53.234;6.568;2022-08-01T10:08:51;7.22;;;1.75;;
52618;SDS011;38513;53.234;6.568;2022-08-01T10:11:17;9.25;;;1.85;;
52618;SDS011;38513;53.234;6.568;2022-08-01T10:13:44;10.40;;;2.00;;
52618;SDS011;38513;53.234;6.568;2022-08-01T10:16:10;8.68;;;1.80;;
52618;SDS011;38513;53.234;6.568;2022-08-01T10:18:38;9.15;;;1.42;;
52618;SDS011;38513;53.234;6.568;2022-08-01T10:21:06;9.32;;;1.70;;
52618;SDS011;38513;53.234;6.568;2022-08-01T10:23:33;10.30;;;1.92;;
52618;SDS011;38513;53.234;6.568;2022-08-01T10:26:04;9.63;;;2.05;;
52618;SDS011;38513;53.234;6.568;2022-08-01T10:28:34;9.80;;;2.13;;
52618;SDS011;38513;53.234;6.568;2022-08-01T10:31:01;7.68;;;1.90;;
52618;SDS011;38513;53.234;6.568;2022-08-01T10:33:33;8.98;;;1.83;;
52618;SDS011;38513;53.234;6.568;2022-08-01T10:36:01;10.35;;;2.05;;
52618;SDS011;38513;53.234;6.568;2022-08-01T10:38:28;7.72;;;1.80;;
52618;SDS011;38513;53.234;6.568;2022-08-01T10:40:57;9.75;;;2.10;;
52618;SDS011;38513;53.234;6.568;2022-08-01T10:43:25;8.48;;;1.75;;
52618;SDS011;38513;53.234;6.568;2022-08-01T10:45:51;7.90;;;1.80;;
52618;SDS011;38513;53.234;6.568;2022-08-01T10:48:22;7.07;;;1.58;;
52618;SDS011;38513;53.234;6.568;2022-08-01T10:50:53;10.18;;;1.70;;
52618;SDS011;38513;53.234;6.568;2022-08-01T10:53:23;8.10;;;2.13;;
52618;SDS011;38513;53.234;6.568;2022-08-01T10:58:25;9.75;;;1.92;;
52618;SDS011;38513;53.234;6.568;2022-08-01T11:06:23;8.52;;;2.00;;
52618;SDS011;38513;53.234;6.568;2022-08-01T11:08:51;8.15;;;1.85;;
52618;SDS011;38513;53.234;6.568;2022-08-01T11:11:18;8.77;;;1.90;;
52618;SDS011;38513;53.234;6.568;2022-08-01T11:16:33;7.90;;;1.70;;
52618;SDS011;38513;53.234;6.568;2022-08-01T11:18:59;7.40;;;1.70;;
52618;SDS011;38513;53.234;6.568;2022-08-01T11:24:11;8.45;;;1.80;;
52618;SDS011;38513;53.234;6.568;2022-08-01T11:26:37;9.23;;;1.60;;
52618;SDS011;38513;53.234;6.568;2022-08-01T11:29:14;7.00;;;1.48;;
52618;SDS011;38513;53.234;6.568;2022-08-01T11:31:40;8.77;;;1.90;;
52618;SDS011;38513;53.234;6.568;2022-08-01T11:34:06;7.07;;;1.70;;
52618;SDS011;38513;53.234;6.568;2022-08-01T11:36:33;8.13;;;1.70;;
52618;SDS011;38513;53.234;6.568;2022-08-01T11:41:29;8.07;;;1.60;;
52618;SDS011;38513;53.234;6.568;2022-08-01T11:44:00;8.20;;;1.60;;
52618;SDS011;38513;53.234;6.568;2022-08-01T11:49:30;7.57;;;1.55;;
52618;SDS011;38513;53.234;6.568;2022-08-01T11:54:44;9.15;;;1.50;;
52618;SDS011;38513;53.234;6.568;2022-08-01T11:57:16;7.05;;;1.42;;
52618;SDS011;38513;53.234;6.568;2022-08-01T11:59:47;8.15;;;1.58;;
52618;SDS011;38513;53.234;6.568;2022-08-01T12:04:59;7.65;;;1.52;;
52618;SDS011;38513;53.234;6.568;2022-08-01T12:07:26;7.00;;;1.60;;
52618;SDS011;38513;53.234;6.568;2022-08-01T12:09:56;6.73;;;1.50;;
52618;SDS011;38513;53.234;6.568;2022-08-01T12:12:23;8.60;;;1.60;;
52618;SDS011;38513;53.234;6.568;2022-08-01T12:14:53;8.50;;;1.73;;
52618;SDS011;38513;53.234;6.568;2022-08-01T12:17:26;8.07;;;1.50;;
52618;SDS011;38513;53.234;6.568;2022-08-01T12:19:53;7.50;;;1.45;;
52618;SDS011;38513;53.234;6.568;2022-08-01T12:22:21;9.47;;;1.47;;
52618;SDS011;38513;53.234;6.568;2022-08-01T12:24:47;7.53;;;1.48;;
52618;SDS011;38513;53.234;6.568;2022-08-01T12:27:23;10.45;;;2.10;;
52618;SDS011;38513;53.234;6.568;2022-08-01T12:29:49;8.23;;;1.70;;
52618;SDS011;38513;53.234;6.568;2022-08-01T12:32:22;7.55;;;1.33;;
52618;SDS011;38513;53.234;6.568;2022-08-01T12:34:49;7.90;;;1.42;;
52618;SDS011;38513;53.234;6.568;2022-08-01T12:37:19;7.65;;;1.70;;
52618;SDS011;38513;53.234;6.568;2022-08-01T12:39:45;7.38;;;1.45;;
52618;SDS011;38513;53.234;6.568;2022-08-01T12:42:12;8.73;;;1.60;;
52618;SDS011;38513;53.234;6.568;2022-08-01T12:44:39;9.32;;;1.70;;
52618;SDS011;38513;53.234;6.568;2022-08-01T12:47:05;9.68;;;1.92;;
52618;SDS011;38513;53.234;6.568;2022-08-01T12:49:32;7.15;;;1.63;;
52618;SDS011;38513;53.234;6.568;2022-08-01T12:51:59;8.68;;;1.70;;
52618;SDS011;38513;53.234;6.568;2022-08-01T12:54:25;8.07;;;1.90;;
52618;SDS011;38513;53.234;6.568;2022-08-01T12:56:51;9.20;;;1.63;;
52618;SDS011;38513;53.234;6.568;2022-08-01T12:59:25;9.70;;;1.70;;
52618;SDS011;38513;53.234;6.568;2022-08-01T13:01:55;9.02;;;1.65;;
52618;SDS011;38513;53.234;6.568;2022-08-01T13:04:21;8.63;;;1.60;;
52618;SDS011;38513;53.234;6.568;2022-08-01T13:06:54;8.70;;;1.55;;
52618;SDS011;38513;53.234;6.568;2022-08-01T13:09:20;7.72;;;1.35;;
52618;SDS011;38513;53.234;6.568;2022-08-01T13:11:46;9.77;;;1.63;;
52618;SDS011;38513;53.234;6.568;2022-08-01T13:14:27;7.40;;;1.67;;
52618;SDS011;38513;53.234;6.568;2022-08-01T13:16:53;8.93;;;1.50;;
52618;SDS011;38513;53.234;6.568;2022-08-01T13:19:19;7.00;;;1.60;;
52618;SDS011;38513;53.234;6.568;2022-08-01T13:21:55;8.25;;;1.60;;
52618;SDS011;38513;53.234;6.568;2022-08-01T13:24:26;7.65;;;1.60;;
52618;SDS011;38513;53.234;6.568;2022-08-01T13:26:53;11.15;;;2.08;;
52618;SDS011;38513;53.234;6.568;2022-08-01T13:31:54;10.18;;;1.77;;
52618;SDS011;38513;53.234;6.568;2022-08-01T13:34:33;8.53;;;1.70;;
52618;SDS011;38513;53.234;6.568;2022-08-01T13:37:00;10.23;;;1.67;;
52618;SDS011;38513;53.234;6.568;2022-08-01T13:39:29;8.05;;;1.52;;
52618;SDS011;38513;53.234;6.568;2022-08-01T13:42:15;9.20;;;1.65;;
52618;SDS011;38513;53.234;6.568;2022-08-01T13:44:42;7.30;;;1.60;;
52618;SDS011;38513;53.234;6.568;2022-08-01T13:47:11;6.55;;;1.70;;
52618;SDS011;38513;53.234;6.568;2022-08-01T13:49:38;8.50;;;1.50;;
52618;SDS011;38513;53.234;6.568;2022-08-01T13:52:07;8.02;;;1.52;;
52618;SDS011;38513;53.234;6.568;2022-08-01T13:54:33;9.60;;;1.63;;
52618;SDS011;38513;53.234;6.568;2022-08-01T13:57:01;7.70;;;1.70;;
52618;SDS011;38513;53.234;6.568;2022-08-01T13:59:27;9.32;;;1.80;;
52618;SDS011;38513;53.234;6.568;2022-08-01T14:01:53;9.10;;;1.57;;
52618;SDS011;38513;53.234;6.568;2022-08-01T14:04:19;8.02;;;1.77;;
52618;SDS011;38513;53.234;6.568;2022-08-01T14:06:46;8.73;;;2.00;;
52618;SDS011;38513;53.234;6.568;2022-08-01T14:09:12;7.97;;;1.60;;
52618;SDS011;38513;53.234;6.568;2022-08-01T14:11:41;7.13;;;1.70;;
52618;SDS011;38513;53.234;6.568;2022-08-01T14:14:11;9.50;;;1.80;;
52618;SDS011;38513;53.234;6.568;2022-08-01T14:16:37;9.57;;;2.10;;
52618;SDS011;38513;53.234;6.568;2022-08-01T14:19:04;7.70;;;1.53;;
52618;SDS011;38513;53.234;6.568;2022-08-01T14:21:30;9.15;;;1.77;;
52618;SDS011;38513;53.234;6.568;2022-08-01T14:23:56;9.33;;;1.80;;
52618;SDS011;38513;53.234;6.568;2022-08-01T14:26:22;9.80;;;1.60;;
52618;SDS011;38513;53.234;6.568;2022-08-01T14:28:48;9.10;;;1.85;;
52618;SDS011;38513;53.234;6.568;2022-08-01T14:31:14;10.30;;;2.40;;
52618;SDS011;38513;53.234;6.568;2022-08-01T14:33:41;9.35;;;1.73;;
52618;SDS011;38513;53.234;6.568;2022-08-01T14:36:07;7.80;;;1.40;;
52618;SDS011;38513;53.234;6.568;2022-08-01T14:38:33;8.80;;;1.90;;
52618;SDS011;38513;53.234;6.568;2022-08-01T14:41:00;7.53;;;1.83;;
52618;SDS011;38513;53.234;6.568;2022-08-01T14:43:30;9.52;;;1.75;;
52618;SDS011;38513;53.234;6.568;2022-08-01T14:45:57;9.25;;;1.83;;
52618;SDS011;38513;53.234;6.568;2022-08-01T14:48:23;8.23;;;1.80;;
52618;SDS011;38513;53.234;6.568;2022-08-01T14:50:50;9.48;;;1.85;;
52618;SDS011;38513;53.234;6.568;2022-08-01T14:53:16;8.75;;;1.90;;
52618;SDS011;38513;53.234;6.568;2022-08-01T14:55:43;9.53;;;2.23;;
52618;SDS011;38513;53.234;6.568;2022-08-01T14:58:09;10.75;;;3.75;;
52618;SDS011;38513;53.234;6.568;2022-08-01T15:00:35;7.93;;;1.67;;
52618;SDS011;38513;53.234;6.568;2022-08-01T15:03:01;9.80;;;1.75;;
52618;SDS011;38513;53.234;6.568;2022-08-01T15:05:27;10.00;;;1.85;;
52618;SDS011;38513;53.234;6.568;2022-08-01T15:07:55;9.27;;;2.20;;
52618;SDS011;38513;53.234;6.568;2022-08-01T15:10:21;8.93;;;1.90;;
52618;SDS011;38513;53.234;6.568;2022-08-01T15:12:48;8.07;;;1.55;;
52618;SDS011;38513;53.234;6.568;2022-08-01T15:15:17;8.65;;;1.90;;
52618;SDS011;38513;53.234;6.568;2022-08-01T15:17:44;8.43;;;1.90;;
52618;SDS011;38513;53.234;6.568;2022-08-01T15:20:12;7.70;;;1.70;;